createdAt,value
2023-01-31T00:00:16.474Z,-0.10
2023-01-31T00:02:45.413Z,0.00
2023-01-31T00:05:13.973Z,0.00
2023-01-31T00:07:42.759Z,-0.10
2023-01-31T00:10:12.997Z,-0.10
2023-01-31T00:12:41.649Z,-0.20
2023-01-31T00:15:13.761Z,-0.10
2023-01-31T00:17:42.237Z,-0.10
2023-01-31T00:20:12.465Z,-0.10
2023-01-31T00:22:41.301Z,-0.10
2023-01-31T00:25:10.760Z,-0.10
2023-01-31T00:27:39.527Z,-0.10
2023-01-31T00:30:10.718Z,-0.10
2023-01-31T00:32:41.310Z,-0.10
2023-01-31T00:35:10.546Z,-0.20
2023-01-31T00:37:39.189Z,-0.10
2023-01-31T00:40:09.236Z,-0.10
2023-01-31T00:42:38.698Z,-0.20
2023-01-31T00:45:08.725Z,-0.20
2023-01-31T00:47:37.643Z,-0.20
2023-01-31T00:50:08.731Z,-0.10
2023-01-31T00:53:04.519Z,-0.10
2023-01-31T00:55:33.292Z,-0.10
2023-01-31T00:58:01.738Z,-0.10
2023-01-31T01:00:30.336Z,-0.10
2023-01-31T01:02:59.035Z,0.00
2023-01-31T01:05:29.084Z,0.00
2023-01-31T01:07:58.006Z,0.00
2023-01-31T01:10:51.066Z,0.00
2023-01-31T01:13:20.002Z,0.00
2023-01-31T01:15:48.411Z,-0.10
2023-01-31T01:18:17.111Z,0.00
2023-01-31T01:20:47.752Z,-0.10
2023-01-31T01:23:17.008Z,-0.10
2023-01-31T01:25:46.511Z,0.00
2023-01-31T01:28:42.086Z,0.00
2023-01-31T01:31:12.960Z,0.00
2023-01-31T01:33:41.718Z,0.10
2023-01-31T01:36:17.493Z,0.00
2023-01-31T01:38:46.830Z,0.00
2023-01-31T01:41:15.912Z,0.00
2023-01-31T01:43:45.997Z,0.00
2023-01-31T01:46:20.503Z,0.00
2023-01-31T01:48:52.927Z,0.10
2023-01-31T01:51:23.875Z,0.00
2023-01-31T01:53:59.188Z,0.00
2023-01-31T01:56:32.640Z,0.10
2023-01-31T01:59:06.260Z,0.00
2023-01-31T02:01:39.198Z,0.00
2023-01-31T02:04:11.298Z,0.20
2023-01-31T02:06:42.141Z,0.10
2023-01-31T02:09:18.137Z,0.10
2023-01-31T02:11:47.037Z,0.10
2023-01-31T02:14:16.736Z,0.10
2023-01-31T02:16:45.431Z,0.10
2023-01-31T02:19:21.443Z,0.10
2023-01-31T02:22:11.324Z,0.10
2023-01-31T02:25:13.266Z,0.00
2023-01-31T02:28:11.961Z,0.00
2023-01-31T02:31:26.400Z,0.10
2023-01-31T02:34:03.367Z,0.20
2023-01-31T02:36:40.250Z,0.20
2023-01-31T02:39:17.446Z,0.30
2023-01-31T02:41:52.096Z,0.20
2023-01-31T02:44:45.509Z,0.20
2023-01-31T02:47:26.341Z,0.30
2023-01-31T02:50:00.858Z,0.30
2023-01-31T02:52:36.534Z,0.20
2023-01-31T02:55:29.328Z,0.30
2023-01-31T02:58:01.468Z,0.30
2023-01-31T03:00:33.422Z,0.30
2023-01-31T03:03:02.430Z,0.30
2023-01-31T03:05:32.934Z,0.30
2023-01-31T03:08:05.236Z,0.30
2023-01-31T03:10:57.860Z,0.40
2023-01-31T03:13:41.098Z,0.40
2023-01-31T03:16:36.578Z,0.40
2023-01-31T03:19:14.237Z,0.40
2023-01-31T03:21:48.960Z,0.30
2023-01-31T03:24:19.206Z,0.40
2023-01-31T03:26:49.135Z,0.40
2023-01-31T03:29:18.716Z,0.40
2023-01-31T03:31:51.887Z,0.40
2023-01-31T03:34:21.429Z,0.40
2023-01-31T03:36:59.082Z,0.40
2023-01-31T03:39:36.481Z,0.40
2023-01-31T03:42:09.772Z,0.40
2023-01-31T03:44:45.138Z,0.50
2023-01-31T03:47:19.006Z,0.50
2023-01-31T03:49:49.715Z,0.50
2023-01-31T03:52:24.761Z,0.40
2023-01-31T03:54:59.851Z,0.40
2023-01-31T03:57:34.620Z,0.40
2023-01-31T04:00:07.771Z,0.40
2023-01-31T04:02:38.532Z,0.40
2023-01-31T04:05:10.667Z,0.40
2023-01-31T04:07:42.554Z,0.50
2023-01-31T04:10:15.280Z,0.50
2023-01-31T04:12:44.424Z,0.50
2023-01-31T04:15:14.270Z,0.60
2023-01-31T04:17:42.961Z,0.60
2023-01-31T04:20:13.328Z,0.50
2023-01-31T04:22:43.451Z,0.50
2023-01-31T04:25:12.903Z,0.50
2023-01-31T04:27:41.695Z,0.50
2023-01-31T04:30:11.827Z,0.50
2023-01-31T04:32:41.121Z,0.50
2023-01-31T04:36:00.076Z,0.50
2023-01-31T04:38:30.313Z,0.50
2023-01-31T04:40:58.816Z,0.40
2023-01-31T04:43:27.538Z,0.40
2023-01-31T04:45:56.505Z,0.40
2023-01-31T04:48:25.371Z,0.40
2023-01-31T04:50:54.236Z,0.40
2023-01-31T04:53:23.429Z,0.40
2023-01-31T04:55:55.852Z,0.30
2023-01-31T04:58:24.552Z,0.30
2023-01-31T05:00:55.176Z,0.40
2023-01-31T05:03:48.485Z,0.40
2023-01-31T05:06:42.076Z,0.50
2023-01-31T05:09:11.849Z,0.60
2023-01-31T05:11:42.254Z,0.60
2023-01-31T05:14:11.097Z,0.60
2023-01-31T05:16:39.978Z,0.60
2023-01-31T05:19:08.556Z,0.60
2023-01-31T05:21:55.343Z,0.60
2023-01-31T05:24:24.331Z,0.60
2023-01-31T05:26:58.601Z,0.60
2023-01-31T05:29:32.799Z,0.70
2023-01-31T05:32:03.778Z,0.70
2023-01-31T05:34:33.454Z,0.60
2023-01-31T05:37:02.815Z,0.70
2023-01-31T05:39:31.689Z,0.70
2023-01-31T05:42:02.046Z,0.70
2023-01-31T05:44:32.444Z,0.70
2023-01-31T05:47:01.818Z,0.70
2023-01-31T05:49:34.720Z,0.70
2023-01-31T05:52:03.688Z,0.80
2023-01-31T05:54:32.625Z,0.80
2023-01-31T05:57:02.882Z,0.80
2023-01-31T05:59:50.331Z,0.90
2023-01-31T06:02:19.235Z,0.90
2023-01-31T06:04:47.814Z,0.90
2023-01-31T06:07:23.801Z,0.90
2023-01-31T06:09:52.560Z,0.90
2023-01-31T06:12:22.453Z,1.00
2023-01-31T06:14:51.097Z,0.90
2023-01-31T06:17:38.007Z,0.90
2023-01-31T06:20:12.653Z,0.90
2023-01-31T06:22:42.571Z,0.80
2023-01-31T06:25:11.875Z,0.80
2023-01-31T06:27:42.428Z,0.80
2023-01-31T06:30:12.173Z,0.80
2023-01-31T06:32:40.935Z,0.80
2023-01-31T06:35:10.321Z,0.80
2023-01-31T06:37:38.922Z,0.80
2023-01-31T06:40:08.433Z,0.80
2023-01-31T06:42:37.734Z,0.80
2023-01-31T06:45:09.786Z,0.90
2023-01-31T06:47:48.000Z,0.90
2023-01-31T06:50:20.091Z,0.90
2023-01-31T06:52:48.858Z,1.00
2023-01-31T06:55:17.753Z,0.90
2023-01-31T06:57:49.957Z,1.00
2023-01-31T07:00:22.228Z,1.00
2023-01-31T07:02:51.263Z,1.10
2023-01-31T07:05:21.027Z,1.20
2023-01-31T07:07:50.214Z,1.20
2023-01-31T07:10:41.372Z,1.20
2023-01-31T07:13:09.856Z,1.20
2023-01-31T07:15:40.327Z,1.20
2023-01-31T07:18:09.381Z,1.20
2023-01-31T07:20:38.125Z,1.20
2023-01-31T07:23:31.688Z,1.20
2023-01-31T07:26:02.370Z,1.20
2023-01-31T07:28:31.189Z,1.20
2023-01-31T07:31:07.646Z,1.20
2023-01-31T07:33:36.314Z,1.30
2023-01-31T07:36:05.998Z,1.40
2023-01-31T07:38:35.445Z,1.40
2023-01-31T07:41:05.855Z,1.50
2023-01-31T12:17:29.447Z,2.30
2023-01-31T12:20:28.594Z,2.70
2023-01-31T12:23:11.282Z,2.80
2023-01-31T12:26:05.791Z,2.80
2023-01-31T12:29:07.547Z,2.70
2023-01-31T12:32:02.795Z,2.80
2023-01-31T12:35:08.073Z,2.80
2023-01-31T12:37:56.409Z,2.90
2023-01-31T12:40:41.152Z,3.00
2023-01-31T12:43:39.635Z,3.00
2023-01-31T12:46:32.661Z,3.00
2023-01-31T12:49:31.441Z,3.00
2023-01-31T12:52:16.131Z,3.10
2023-01-31T12:55:04.331Z,3.00
2023-01-31T12:57:44.531Z,2.90
2023-01-31T13:00:35.290Z,3.00
2023-01-31T13:03:39.096Z,3.10
2023-01-31T13:06:15.571Z,3.20
2023-01-31T13:09:07.229Z,3.20
2023-01-31T13:11:51.010Z,3.30
2023-01-31T13:14:23.841Z,3.40
2023-01-31T13:17:00.179Z,3.60
2023-01-31T13:19:37.794Z,3.70
2023-01-31T13:22:15.909Z,3.90
2023-01-31T13:24:52.947Z,4.10
2023-01-31T13:27:29.143Z,4.10
2023-01-31T13:30:02.852Z,4.20
2023-01-31T13:32:39.584Z,4.10
2023-01-31T13:35:23.100Z,4.00
2023-01-31T13:37:57.945Z,3.70
2023-01-31T13:40:33.968Z,3.40
2023-01-31T13:43:13.125Z,3.30
2023-01-31T13:45:48.446Z,3.20
2023-01-31T13:48:27.923Z,3.20
2023-01-31T13:51:03.548Z,3.30
2023-01-31T13:53:37.587Z,3.40
2023-01-31T13:56:14.454Z,3.50
2023-01-31T13:58:45.964Z,3.70
2023-01-31T14:01:21.294Z,3.70
2023-01-31T14:04:34.947Z,3.60
2023-01-31T14:07:25.274Z,3.60
2023-01-31T14:10:43.896Z,3.50
2023-01-31T14:13:44.367Z,3.30
2023-01-31T14:16:49.328Z,3.10
2023-01-31T14:20:09.754Z,3.00
2023-01-31T14:22:41.526Z,2.90
2023-01-31T14:25:17.099Z,2.90
2023-01-31T14:28:02.724Z,2.80
2023-01-31T14:30:41.187Z,2.80
2023-01-31T14:33:25.266Z,2.70
2023-01-31T14:36:36.554Z,2.70
2023-01-31T14:40:03.994Z,2.60
2023-01-31T14:43:09.523Z,2.60
2023-01-31T14:46:37.230Z,2.50
2023-01-31T14:49:44.757Z,2.40
2023-01-31T14:52:37.958Z,2.40
2023-01-31T14:55:39.867Z,2.30
2023-01-31T14:58:17.634Z,2.30
2023-01-31T15:00:52.847Z,2.30
2023-01-31T15:03:26.857Z,2.30
2023-01-31T15:06:08.857Z,2.40
2023-01-31T15:08:46.832Z,2.40
2023-01-31T15:11:42.647Z,2.40
2023-01-31T15:14:41.026Z,2.40
2023-01-31T15:17:34.096Z,2.30
2023-01-31T15:20:17.932Z,2.20
2023-01-31T15:22:50.150Z,2.20
2023-01-31T15:25:36.008Z,2.10
2023-01-31T15:28:06.554Z,2.00
2023-01-31T15:30:37.468Z,2.00
2023-01-31T15:33:14.570Z,2.00
2023-01-31T15:35:51.434Z,2.00
2023-01-31T15:38:33.453Z,2.00
2023-01-31T15:41:25.450Z,1.90
2023-01-31T15:43:56.919Z,1.90
2023-01-31T15:46:30.696Z,1.90
2023-01-31T15:49:00.241Z,2.00
2023-01-31T15:51:29.940Z,1.90
2023-01-31T15:54:06.891Z,1.90
2023-01-31T15:56:40.523Z,1.80
2023-01-31T15:59:16.240Z,1.90
2023-01-31T16:01:50.267Z,1.90
2023-01-31T16:04:19.055Z,1.90
2023-01-31T16:06:48.795Z,1.90
2023-01-31T16:09:30.079Z,1.90
2023-01-31T16:12:00.436Z,2.00
2023-01-31T16:14:30.489Z,1.90
2023-01-31T16:17:24.824Z,1.90
2023-01-31T16:19:54.057Z,1.90
2023-01-31T16:22:28.612Z,1.90
2023-01-31T16:25:01.503Z,1.90
2023-01-31T16:27:34.092Z,1.90
2023-01-31T16:30:03.128Z,1.80
2023-01-31T16:32:35.670Z,1.90
2023-01-31T16:35:07.867Z,1.90
2023-01-31T16:37:39.424Z,1.80
2023-01-31T16:40:23.343Z,1.90
2023-01-31T16:43:03.991Z,1.80
2023-01-31T16:45:35.501Z,1.80
2023-01-31T16:48:24.299Z,1.90
2023-01-31T16:50:55.191Z,1.90
2023-01-31T16:53:40.178Z,1.90
2023-01-31T16:56:31.828Z,1.90
2023-01-31T16:59:00.469Z,1.90
2023-01-31T17:01:32.715Z,1.80
2023-01-31T17:04:20.480Z,1.80
2023-01-31T17:07:01.756Z,1.80
2023-01-31T17:09:30.692Z,1.80
2023-01-31T17:12:00.761Z,1.90
2023-01-31T17:14:29.934Z,1.80
2023-01-31T17:16:59.003Z,1.80
2023-01-31T17:19:27.842Z,1.80
2023-01-31T17:21:56.434Z,1.90
2023-01-31T17:24:24.974Z,1.90
2023-01-31T17:27:21.459Z,1.90
2023-01-31T17:29:50.443Z,1.80
2023-01-31T17:32:22.049Z,1.80
2023-01-31T17:34:50.530Z,1.80
2023-01-31T17:37:26.798Z,1.80
2023-01-31T17:40:00.822Z,1.70
2023-01-31T17:42:30.863Z,1.70
2023-01-31T17:44:59.469Z,1.70
2023-01-31T17:47:28.068Z,1.70
2023-01-31T17:49:57.453Z,1.70
2023-01-31T17:52:26.179Z,1.60
2023-01-31T17:54:54.661Z,1.70
2023-01-31T17:57:23.275Z,1.60
2023-01-31T18:00:21.915Z,1.60
2023-01-31T18:02:52.531Z,1.60
2023-01-31T18:05:30.199Z,1.60
2023-01-31T18:08:06.177Z,1.50
2023-01-31T18:10:34.721Z,1.60
2023-01-31T18:13:03.414Z,1.50
2023-01-31T18:15:34.013Z,1.50
2023-01-31T18:18:02.539Z,1.50
2023-01-31T18:20:31.239Z,1.50
2023-01-31T18:22:59.743Z,1.50
2023-01-31T18:25:29.504Z,1.50
2023-01-31T18:27:58.441Z,1.50
2023-01-31T18:30:27.183Z,1.50
2023-01-31T18:32:57.131Z,1.50
2023-01-31T18:35:25.677Z,1.50
2023-01-31T18:37:55.441Z,1.50
2023-01-31T18:40:24.505Z,1.50
2023-01-31T18:42:53.001Z,1.50
2023-01-31T18:45:21.772Z,1.50
2023-01-31T18:47:51.677Z,1.50
2023-01-31T18:50:21.576Z,1.50
2023-01-31T18:53:15.385Z,1.50
2023-01-31T18:56:05.518Z,1.50
2023-01-31T18:58:35.334Z,1.60
2023-01-31T19:01:09.645Z,1.60
2023-01-31T19:03:39.056Z,1.60
2023-01-31T19:06:11.805Z,1.60
2023-01-31T19:08:40.963Z,1.60
2023-01-31T19:11:12.865Z,1.60
2023-01-31T19:13:42.531Z,1.50
2023-01-31T19:16:14.126Z,1.50
2023-01-31T19:18:43.058Z,1.50
2023-01-31T19:21:21.927Z,1.50
2023-01-31T19:23:52.629Z,1.50
2023-01-31T19:26:21.411Z,1.50
2023-01-31T19:28:50.819Z,1.50
2023-01-31T19:31:22.920Z,1.50
2023-01-31T19:33:53.587Z,1.50
2023-01-31T19:36:29.348Z,1.50
2023-01-31T19:39:01.148Z,1.50
2023-01-31T19:41:30.535Z,1.50
2023-01-31T19:44:01.490Z,1.50
2023-01-31T19:46:32.586Z,1.50
2023-01-31T19:49:33.423Z,1.50
2023-01-31T19:52:03.234Z,1.40
2023-01-31T19:54:31.767Z,1.40
2023-01-31T19:57:00.238Z,1.30
2023-01-31T19:59:28.669Z,1.30
2023-01-31T20:01:57.212Z,1.40
2023-01-31T20:04:25.946Z,1.30
2023-01-31T20:06:54.440Z,1.30
2023-01-31T20:09:24.469Z,1.30
2023-01-31T20:11:54.031Z,1.30
2023-01-31T20:14:22.813Z,1.30
2023-01-31T20:16:51.392Z,1.30
2023-01-31T20:20:11.372Z,1.20
2023-01-31T20:22:39.845Z,1.20
2023-01-31T20:25:10.942Z,1.20
2023-01-31T20:27:39.432Z,1.10
2023-01-31T20:30:09.875Z,1.10
2023-01-31T20:32:38.335Z,1.10
2023-01-31T20:35:07.906Z,1.10
2023-01-31T20:37:36.354Z,1.10
2023-01-31T20:40:05.217Z,1.00
2023-01-31T20:42:35.224Z,1.00
2023-01-31T20:45:28.118Z,1.00
2023-01-31T20:47:56.823Z,0.90
2023-01-31T20:50:26.766Z,1.00
2023-01-31T20:52:56.063Z,1.00
2023-01-31T20:55:25.360Z,0.90
2023-01-31T20:57:55.212Z,1.00
2023-01-31T21:00:24.420Z,0.90
2023-01-31T21:02:53.340Z,0.90
2023-01-31T21:05:24.110Z,1.00
2023-01-31T21:07:52.642Z,1.00
2023-01-31T21:10:21.550Z,0.90
2023-01-31T21:12:50.098Z,0.90
2023-01-31T21:15:20.000Z,1.00
2023-01-31T21:17:48.487Z,1.00
2023-01-31T21:20:17.095Z,1.00
2023-01-31T21:22:45.572Z,1.00
2023-01-31T21:25:15.688Z,1.00
2023-01-31T21:27:44.269Z,0.90
2023-01-31T21:30:15.594Z,0.90
2023-01-31T21:32:46.533Z,0.90
2023-01-31T21:35:15.728Z,0.80
2023-01-31T21:37:44.192Z,0.80
2023-01-31T21:40:14.227Z,0.80
2023-01-31T21:42:43.079Z,0.80
2023-01-31T21:45:12.654Z,0.80
2023-01-31T21:47:54.904Z,0.80
2023-01-31T21:50:24.783Z,0.70
2023-01-31T21:52:53.272Z,0.70
2023-01-31T21:55:22.522Z,0.70
2023-01-31T21:57:50.959Z,0.70
2023-01-31T22:00:21.165Z,0.80
2023-01-31T22:02:53.404Z,0.70
2023-01-31T22:05:21.869Z,0.70
2023-01-31T22:07:51.670Z,0.70
2023-01-31T22:10:20.608Z,0.70
2023-01-31T22:12:49.170Z,0.60
2023-01-31T22:15:17.719Z,0.60
2023-01-31T22:17:46.210Z,0.60
2023-01-31T22:20:15.872Z,0.60
2023-01-31T22:22:45.279Z,0.60
2023-01-31T22:25:15.452Z,0.60
2023-01-31T22:27:43.937Z,0.70
2023-01-31T22:30:27.821Z,0.70
2023-01-31T22:32:56.367Z,0.70
2023-01-31T22:35:26.481Z,0.70
2023-01-31T22:37:54.938Z,0.80
2023-01-31T22:40:24.737Z,0.70
2023-01-31T22:42:53.185Z,0.70
2023-01-31T22:45:21.670Z,0.70
2023-01-31T22:47:50.142Z,0.80
2023-01-31T22:50:19.416Z,0.80
2023-01-31T22:52:49.601Z,0.80
2023-01-31T22:55:18.250Z,0.90
2023-01-31T22:57:48.952Z,0.90
2023-01-31T23:00:17.787Z,0.90
2023-01-31T23:02:46.237Z,1.00
2023-01-31T23:05:14.759Z,1.00
2023-01-31T23:07:43.336Z,1.00
2023-01-31T23:10:12.607Z,1.00
2023-01-31T23:12:42.621Z,1.00
2023-01-31T23:15:14.653Z,1.10
2023-01-31T23:17:47.175Z,1.00
2023-01-31T23:20:18.400Z,1.10
2023-01-31T23:22:47.834Z,1.10
2023-01-31T23:25:16.504Z,1.00
2023-01-31T23:27:45.182Z,1.10
2023-01-31T23:30:46.695Z,1.10
2023-01-31T23:33:15.524Z,1.00
2023-01-31T23:35:43.937Z,1.00
2023-01-31T23:38:12.382Z,1.00
2023-01-31T23:40:40.862Z,1.00
2023-01-31T23:43:10.483Z,1.00
2023-01-31T23:45:38.959Z,1.00
2023-01-31T23:48:08.973Z,1.00
2023-01-31T23:50:38.840Z,1.00
2023-01-31T23:53:07.481Z,1.00
2023-01-31T23:55:36.549Z,1.00
2023-01-31T23:58:05.097Z,1.00
